createdAt,value
2017-12-20T00:01:41.836Z,31.93
2017-12-20T00:04:09.281Z,32.70
2017-12-20T00:06:36.693Z,32.87
2017-12-20T00:09:04.126Z,33.60
2017-12-20T00:11:31.552Z,34.70
2017-12-20T00:13:58.984Z,30.10
2017-12-20T00:16:26.402Z,29.33
2017-12-20T00:18:53.842Z,28.57
2017-12-20T00:21:21.246Z,32.10
2017-12-20T00:23:48.650Z,32.13
2017-12-20T00:26:16.064Z,31.90
2017-12-20T00:28:43.478Z,30.40
2017-12-20T00:31:10.893Z,32.30
2017-12-20T00:33:38.331Z,31.17
2017-12-20T00:36:05.736Z,31.10
2017-12-20T00:38:33.139Z,31.53
2017-12-20T00:41:00.650Z,32.63
2017-12-20T00:43:28.073Z,31.33
2017-12-20T00:45:55.499Z,31.80
2017-12-20T00:48:22.936Z,30.37
2017-12-20T00:50:50.351Z,30.30
2017-12-20T00:53:17.762Z,28.53
2017-12-20T00:55:45.281Z,28.00
2017-12-20T00:58:12.682Z,30.97
2017-12-20T01:00:40.087Z,30.33
2017-12-20T01:03:07.600Z,31.03
2017-12-20T01:05:35.014Z,30.07
2017-12-20T01:08:02.422Z,28.77
2017-12-20T01:10:29.864Z,29.10
2017-12-20T01:12:57.294Z,29.93
2017-12-20T01:15:24.703Z,33.00
2017-12-20T01:17:52.138Z,33.90
2017-12-20T01:20:19.554Z,31.80
2017-12-20T01:22:46.986Z,33.63
2017-12-20T01:25:14.509Z,34.20
2017-12-20T01:27:41.931Z,34.73
2017-12-20T01:30:09.342Z,30.00
2017-12-20T01:32:36.771Z,29.23
2017-12-20T01:35:04.208Z,32.53
2017-12-20T01:37:31.605Z,32.77
2017-12-20T01:39:59.041Z,33.30
2017-12-20T01:42:43.783Z,31.73
2017-12-20T01:45:11.213Z,34.00
2017-12-20T01:47:38.617Z,35.03
2017-12-20T01:50:06.041Z,34.83
2017-12-20T01:52:33.450Z,36.10
2017-12-20T01:55:00.861Z,39.50
2017-12-20T01:57:28.274Z,37.80
2017-12-20T01:59:55.681Z,39.63
2017-12-20T02:02:23.091Z,39.70
2017-12-20T02:04:50.506Z,39.20
2017-12-20T02:07:17.958Z,40.50
2017-12-20T02:09:45.365Z,38.67
2017-12-20T02:12:12.776Z,38.90
2017-12-20T02:14:40.194Z,41.37
2017-12-20T02:17:07.597Z,40.10
2017-12-20T02:19:35.010Z,38.80
2017-12-20T02:22:02.445Z,41.40
2017-12-20T02:24:29.860Z,39.63
2017-12-20T02:26:57.278Z,38.93
2017-12-20T02:29:24.689Z,36.53
2017-12-20T02:31:52.093Z,35.70
2017-12-20T02:34:19.509Z,38.23
2017-12-20T02:36:46.948Z,38.30
2017-12-20T02:39:14.361Z,36.73
2017-12-20T02:41:41.772Z,35.50
2017-12-20T02:44:09.201Z,35.97
2017-12-20T02:46:36.611Z,36.90
2017-12-20T02:49:04.018Z,34.13
2017-12-20T02:51:31.433Z,35.30
2017-12-20T02:53:58.868Z,36.50
2017-12-20T02:56:26.320Z,35.50
2017-12-20T02:58:53.727Z,35.40
2017-12-20T03:01:21.157Z,36.40
2017-12-20T03:03:48.606Z,35.57
2017-12-20T03:06:16.025Z,37.27
2017-12-20T03:08:43.449Z,39.17
2017-12-20T03:11:10.861Z,37.23
2017-12-20T03:13:38.268Z,34.27
2017-12-20T03:16:05.702Z,36.90
2017-12-20T03:18:33.109Z,35.53
2017-12-20T03:21:00.561Z,40.07
2017-12-20T03:23:27.970Z,39.87
2017-12-20T03:25:55.381Z,38.23
2017-12-20T03:28:22.809Z,36.63
2017-12-20T03:30:50.230Z,40.33
2017-12-20T03:33:17.759Z,36.60
2017-12-20T03:35:45.177Z,32.93
2017-12-20T03:38:12.598Z,37.00
2017-12-20T03:40:40.005Z,36.33
2017-12-20T03:43:07.625Z,33.20
2017-12-20T03:45:35.072Z,39.23
2017-12-20T03:48:02.486Z,39.40
2017-12-20T03:50:29.938Z,37.40
2017-12-20T03:52:57.350Z,36.20
2017-12-20T03:55:24.816Z,37.87
2017-12-20T03:57:52.245Z,37.23
2017-12-20T04:00:19.661Z,40.20
2017-12-20T04:02:47.065Z,40.90
2017-12-20T04:05:14.489Z,39.00
2017-12-20T04:07:41.898Z,36.40
2017-12-20T04:10:09.317Z,39.33
2017-12-20T04:12:36.715Z,37.90
2017-12-20T04:15:04.222Z,39.90
2017-12-20T04:17:31.625Z,42.40
2017-12-20T04:19:59.040Z,41.57
2017-12-20T04:22:26.456Z,40.30
2017-12-20T04:24:53.860Z,40.33
2017-12-20T04:27:21.281Z,40.70
2017-12-20T04:29:48.697Z,39.90
2017-12-20T04:32:16.126Z,41.67
2017-12-20T04:34:43.549Z,41.37
2017-12-20T04:37:10.962Z,37.87
2017-12-20T04:39:38.430Z,42.03
2017-12-20T04:42:05.845Z,41.80
2017-12-20T04:44:33.240Z,39.10
2017-12-20T04:47:00.655Z,41.40
2017-12-20T04:49:28.060Z,38.07
2017-12-20T04:51:56.026Z,41.13
2017-12-20T04:54:23.434Z,39.40
2017-12-20T04:56:50.849Z,39.27
2017-12-20T04:59:18.251Z,44.40
2017-12-20T05:01:45.668Z,41.97
2017-12-20T05:04:13.194Z,42.30
2017-12-20T05:06:40.602Z,40.40
2017-12-20T05:09:08.005Z,37.53
2017-12-20T05:11:35.437Z,42.10
2017-12-20T05:14:02.838Z,40.83
2017-12-20T05:16:30.269Z,40.00
2017-12-20T05:18:57.683Z,41.53
2017-12-20T05:21:28.275Z,44.83
2017-12-20T05:23:55.681Z,42.50
2017-12-20T05:26:23.142Z,42.00
2017-12-20T05:28:50.521Z,40.30
2017-12-20T05:31:17.929Z,41.50
2017-12-20T05:33:45.345Z,42.00
2017-12-20T05:36:12.791Z,43.03
2017-12-20T05:38:40.202Z,41.83
2017-12-20T05:41:07.641Z,41.97
2017-12-20T05:43:35.053Z,42.70
2017-12-20T05:46:02.458Z,43.33
2017-12-20T05:48:29.869Z,42.70
2017-12-20T05:50:57.276Z,42.37
2017-12-20T05:53:24.693Z,45.27
2017-12-20T05:55:52.101Z,43.90
2017-12-20T05:58:19.509Z,45.80
2017-12-20T06:00:46.926Z,43.43
2017-12-20T06:03:14.337Z,46.50
2017-12-20T06:05:41.749Z,45.37
2017-12-20T06:08:09.153Z,45.87
2017-12-20T06:10:36.566Z,47.17
2017-12-20T06:13:03.973Z,48.13
2017-12-20T06:15:31.484Z,43.97
2017-12-20T06:17:58.896Z,44.53
2017-12-20T06:20:26.305Z,46.00
2017-12-20T06:22:53.721Z,45.77
2017-12-20T06:25:21.126Z,44.67
2017-12-20T06:27:48.555Z,47.17
2017-12-20T06:30:15.958Z,46.00
2017-12-20T06:32:43.383Z,45.33
2017-12-20T06:35:10.788Z,49.60
2017-12-20T06:37:38.197Z,46.53
2017-12-20T06:40:05.604Z,44.53
2017-12-20T06:42:33.024Z,49.30
2017-12-20T06:45:00.434Z,45.10
2017-12-20T06:47:27.845Z,46.90
2017-12-20T06:49:55.258Z,45.27
2017-12-20T06:52:22.683Z,50.00
2017-12-20T06:54:50.110Z,46.47
2017-12-20T06:57:17.534Z,48.20
2017-12-20T06:59:44.934Z,49.00
2017-12-20T07:02:12.350Z,44.60
2017-12-20T07:04:39.754Z,46.30
2017-12-20T07:07:07.168Z,46.30
2017-12-20T07:09:34.578Z,45.13
2017-12-20T07:12:01.985Z,45.67
2017-12-20T07:14:29.397Z,45.33
2017-12-20T07:16:56.805Z,47.73
2017-12-20T07:19:24.267Z,46.70
2017-12-20T07:21:51.681Z,47.27
2017-12-20T07:24:19.124Z,48.53
2017-12-20T07:26:46.521Z,46.37
2017-12-20T07:29:13.926Z,46.20
2017-12-20T07:31:41.350Z,47.00
2017-12-20T07:34:08.758Z,48.57
2017-12-20T07:36:36.175Z,46.87
2017-12-20T07:39:03.595Z,46.87
2017-12-20T07:41:31.014Z,47.00
2017-12-20T07:43:58.529Z,45.03
2017-12-20T07:46:25.941Z,46.20
2017-12-20T07:48:53.349Z,47.63
2017-12-20T07:51:20.760Z,47.30
2017-12-20T07:53:48.177Z,48.00
2017-12-20T07:56:15.626Z,46.87
2017-12-20T07:58:43.037Z,49.70
2017-12-20T08:01:10.446Z,43.67
2017-12-20T08:03:37.861Z,50.50
2017-12-20T08:06:05.270Z,44.40
2017-12-20T08:08:32.702Z,44.63
2017-12-20T08:11:00.116Z,46.47
2017-12-20T08:13:27.517Z,44.83
2017-12-20T08:15:54.944Z,44.63
2017-12-20T08:18:22.341Z,44.30
2017-12-20T08:20:49.786Z,43.97
2017-12-20T08:23:17.246Z,48.13
2017-12-20T08:25:44.636Z,47.03
2017-12-20T08:28:12.052Z,45.20
2017-12-20T08:30:39.461Z,47.63
2017-12-20T08:33:06.897Z,45.90
2017-12-20T08:35:34.313Z,48.77
2017-12-20T08:38:01.719Z,47.20
2017-12-20T08:40:29.142Z,47.50
2017-12-20T08:42:56.549Z,48.60
2017-12-20T08:45:23.989Z,48.57
2017-12-20T08:47:51.390Z,44.50
2017-12-20T08:50:18.800Z,46.63
2017-12-20T08:52:46.212Z,50.70
2017-12-20T08:55:13.746Z,50.13
2017-12-20T08:57:41.150Z,50.37
2017-12-20T09:00:08.555Z,47.73
2017-12-20T09:02:35.966Z,48.90
2017-12-20T09:05:03.374Z,49.03
2017-12-20T09:07:30.810Z,49.03
2017-12-20T09:09:58.222Z,48.70
2017-12-20T09:12:25.628Z,50.10
2017-12-20T09:14:53.050Z,50.40
2017-12-20T09:17:20.462Z,48.20
2017-12-20T09:19:47.881Z,49.27
2017-12-20T09:22:15.282Z,50.50
2017-12-20T09:24:42.702Z,51.50
2017-12-20T09:27:15.913Z,42.17
2017-12-20T09:29:43.318Z,48.00
2017-12-20T09:32:10.725Z,49.10
2017-12-20T09:34:38.153Z,48.50
2017-12-20T09:37:05.561Z,48.13
2017-12-20T09:39:32.972Z,49.37
2017-12-20T09:42:00.381Z,49.70
2017-12-20T09:44:27.781Z,44.30
2017-12-20T09:46:55.189Z,46.70
2017-12-20T09:49:22.598Z,46.40
2017-12-20T09:51:50.009Z,45.43
2017-12-20T09:54:17.421Z,48.60
2017-12-20T09:56:44.841Z,46.83
2017-12-20T09:59:12.251Z,47.77
2017-12-20T10:01:39.658Z,47.33
2017-12-20T10:04:07.919Z,47.87
2017-12-20T10:06:35.332Z,47.10
2017-12-20T10:09:02.742Z,44.30
2017-12-20T10:11:30.154Z,44.30
2017-12-20T10:13:57.570Z,49.77
2017-12-20T10:16:24.985Z,46.10
2017-12-20T10:18:52.390Z,48.27
2017-12-20T10:21:19.797Z,49.77
2017-12-20T10:23:47.218Z,49.50
2017-12-20T10:26:14.626Z,52.47
2017-12-20T10:28:42.070Z,48.87
2017-12-20T10:31:09.481Z,49.67
2017-12-20T10:33:36.901Z,50.70
2017-12-20T10:36:04.309Z,48.97
2017-12-20T10:38:31.718Z,50.60
2017-12-20T10:40:59.161Z,48.97
2017-12-20T10:43:26.813Z,49.73
2017-12-20T10:45:54.227Z,53.43
2017-12-20T10:48:21.642Z,51.57
2017-12-20T10:50:49.061Z,51.93
2017-12-20T10:53:16.480Z,51.27
2017-12-20T10:55:43.885Z,50.63
2017-12-20T10:58:11.297Z,49.40
2017-12-20T11:00:38.730Z,51.00
2017-12-20T11:03:06.143Z,52.70
2017-12-20T11:05:33.562Z,51.20
2017-12-20T11:08:00.969Z,51.50
2017-12-20T11:10:28.386Z,52.10
2017-12-20T11:12:55.802Z,48.87
2017-12-20T11:15:23.209Z,51.00
2017-12-20T11:17:50.629Z,51.17
2017-12-20T11:20:18.045Z,49.70
2017-12-20T11:22:45.461Z,49.50
2017-12-20T11:25:12.889Z,45.90
2017-12-20T11:27:40.290Z,46.97
2017-12-20T11:30:07.739Z,48.80
2017-12-20T11:32:35.149Z,47.50
2017-12-20T11:35:02.558Z,46.00
2017-12-20T11:37:29.969Z,46.13
2017-12-20T11:39:57.437Z,44.10
2017-12-20T11:42:24.866Z,47.37
2017-12-20T11:44:52.281Z,45.73
2017-12-20T11:47:19.693Z,46.20
2017-12-20T11:49:47.118Z,49.03
2017-12-20T11:52:14.528Z,47.00
2017-12-20T11:54:41.979Z,45.73
2017-12-20T11:57:09.405Z,46.57
2017-12-20T11:59:36.837Z,47.47
2017-12-20T12:02:04.310Z,45.00
2017-12-20T12:04:31.722Z,44.60
2017-12-20T12:06:59.169Z,44.20
2017-12-20T12:09:26.665Z,45.67
2017-12-20T12:11:54.117Z,45.87
2017-12-20T12:14:21.552Z,44.53
2017-12-20T12:16:48.949Z,44.47
2017-12-20T12:19:16.392Z,42.03
2017-12-20T12:21:43.866Z,43.03
2017-12-20T12:24:11.268Z,42.47
2017-12-20T12:26:38.719Z,43.17
2017-12-20T12:29:06.181Z,39.57
2017-12-20T12:31:33.605Z,40.87
2017-12-20T12:34:01.022Z,38.17
2017-12-20T12:36:28.421Z,39.03
2017-12-20T12:38:55.861Z,41.27
2017-12-20T12:41:23.269Z,38.90
2017-12-20T12:43:50.785Z,38.70
2017-12-20T12:46:18.196Z,41.50
2017-12-20T12:48:45.602Z,42.10
2017-12-20T12:51:13.012Z,41.80
2017-12-20T12:53:40.434Z,39.50
2017-12-20T12:56:07.948Z,44.03
2017-12-20T12:58:35.354Z,38.70
2017-12-20T13:01:02.757Z,43.20
2017-12-20T13:03:30.218Z,44.73
2017-12-20T13:05:57.634Z,42.90
2017-12-20T13:08:25.145Z,42.13
2017-12-20T13:10:52.557Z,40.80
2017-12-20T13:13:19.971Z,43.03
2017-12-20T13:15:47.386Z,43.47
2017-12-20T13:18:14.801Z,43.73
2017-12-20T13:20:42.238Z,46.00
2017-12-20T13:23:09.645Z,43.67
2017-12-20T13:25:37.058Z,43.63
2017-12-20T13:28:04.470Z,42.47
2017-12-20T13:30:31.882Z,43.10
2017-12-20T13:32:59.314Z,38.23
2017-12-20T13:35:26.725Z,40.50
2017-12-20T13:37:54.132Z,44.30
2017-12-20T13:40:21.545Z,41.10
2017-12-20T13:42:48.962Z,38.87
2017-12-20T13:45:16.398Z,43.00
2017-12-20T13:47:43.802Z,42.60
2017-12-20T13:50:11.214Z,40.53
2017-12-20T13:52:38.633Z,41.70
2017-12-20T13:55:06.038Z,43.47
2017-12-20T13:57:33.470Z,43.93
2017-12-20T14:00:00.877Z,41.10
2017-12-20T14:02:28.286Z,42.90
2017-12-20T14:04:55.696Z,41.73
2017-12-20T14:07:23.146Z,43.03
2017-12-20T14:09:50.516Z,40.90
2017-12-20T14:12:17.929Z,41.17
2017-12-20T14:14:45.349Z,41.60
2017-12-20T14:17:12.758Z,39.73
2017-12-20T14:19:40.166Z,40.53
2017-12-20T14:22:07.578Z,41.73
2017-12-20T14:24:35.009Z,41.70
2017-12-20T14:27:02.414Z,38.00
2017-12-20T14:29:29.821Z,40.10
2017-12-20T14:31:57.235Z,39.57
2017-12-20T14:34:24.658Z,40.20
2017-12-20T14:36:52.106Z,38.80
2017-12-20T14:39:19.525Z,38.30
2017-12-20T14:41:46.937Z,38.80
2017-12-20T14:44:14.367Z,38.30
2017-12-20T14:46:42.109Z,37.40
2017-12-20T14:49:09.526Z,33.57
2017-12-20T14:51:37.046Z,34.77
2017-12-20T14:54:04.477Z,36.57
2017-12-20T14:56:31.892Z,34.10
2017-12-20T14:58:59.310Z,40.63
2017-12-20T15:01:26.713Z,35.10
2017-12-20T15:03:54.157Z,35.70
2017-12-20T15:06:21.614Z,38.37
2017-12-20T15:08:49.036Z,33.53
2017-12-20T15:11:16.450Z,37.70
2017-12-20T15:13:43.880Z,39.20
2017-12-20T15:16:11.301Z,36.13
2017-12-20T15:18:38.733Z,39.80
2017-12-20T15:21:06.137Z,35.30
2017-12-20T15:23:33.560Z,35.90
2017-12-20T15:26:00.969Z,35.20
2017-12-20T15:28:28.422Z,36.20
2017-12-20T15:30:55.834Z,39.07
2017-12-20T15:33:23.280Z,41.10
2017-12-20T15:35:50.726Z,39.67
2017-12-20T15:38:18.129Z,35.50
2017-12-20T15:40:45.653Z,32.87
2017-12-20T15:43:13.067Z,34.40
2017-12-20T15:45:41.473Z,31.23
2017-12-20T15:48:08.881Z,29.17
2017-12-20T15:50:36.489Z,32.70
2017-12-20T15:53:11.822Z,35.10
2017-12-20T15:55:39.290Z,34.87
2017-12-20T15:58:06.689Z,34.53
2017-12-20T16:00:34.116Z,33.10
2017-12-20T16:03:01.563Z,34.67
2017-12-20T16:05:28.988Z,37.70
2017-12-20T16:07:56.417Z,34.33
2017-12-20T16:10:23.853Z,33.60
2017-12-20T16:12:51.377Z,34.03
2017-12-20T16:15:18.826Z,29.53
2017-12-20T16:17:46.266Z,30.00
2017-12-20T16:20:13.704Z,30.33
2017-12-20T16:22:41.111Z,29.80
2017-12-20T16:25:08.523Z,30.73
2017-12-20T16:27:35.930Z,31.87
2017-12-20T16:30:03.390Z,31.77
2017-12-20T16:32:30.853Z,33.00
2017-12-20T16:34:58.281Z,35.80
2017-12-20T16:37:26.661Z,35.90
2017-12-20T16:39:54.058Z,37.20
2017-12-20T16:42:21.493Z,36.70
2017-12-20T16:44:48.915Z,36.90
2017-12-20T16:47:16.322Z,35.37
2017-12-20T16:49:43.737Z,34.87
2017-12-20T16:52:11.149Z,34.00
2017-12-20T16:54:38.573Z,36.60
2017-12-20T16:57:05.994Z,33.90
2017-12-20T16:59:33.421Z,32.53
2017-12-20T17:02:00.888Z,32.13
2017-12-20T17:04:28.302Z,32.17
2017-12-20T17:06:55.726Z,35.17
2017-12-20T17:09:23.161Z,36.47
2017-12-20T17:11:50.578Z,35.63
2017-12-20T17:14:18.027Z,35.37
2017-12-20T17:16:45.497Z,34.67
2017-12-20T17:19:12.929Z,33.23
2017-12-20T17:21:40.329Z,34.60
2017-12-20T17:24:07.758Z,33.70
2017-12-20T17:26:35.184Z,39.17
2017-12-20T17:29:02.601Z,39.10
2017-12-20T17:31:30.049Z,35.93
2017-12-20T17:33:57.470Z,33.03
2017-12-20T17:36:24.948Z,30.53
2017-12-20T17:38:52.388Z,31.93
2017-12-20T17:41:19.813Z,29.67
2017-12-20T17:43:47.226Z,36.10
2017-12-20T17:46:14.664Z,36.03
2017-12-20T17:48:42.092Z,34.97
2017-12-20T17:51:09.507Z,31.50
2017-12-20T17:53:36.917Z,31.87
2017-12-20T17:56:04.373Z,30.17
2017-12-20T17:58:31.798Z,32.67
2017-12-20T18:00:59.323Z,31.33
2017-12-20T18:03:26.770Z,30.80
2017-12-20T18:05:54.187Z,30.07
2017-12-20T18:08:21.606Z,32.27
2017-12-20T18:10:49.030Z,30.13
2017-12-20T18:13:16.570Z,30.37
2017-12-20T18:15:43.966Z,31.30
2017-12-20T18:18:11.382Z,32.17
2017-12-20T18:20:38.890Z,31.50
2017-12-20T18:23:06.305Z,29.67
2017-12-20T18:25:33.724Z,35.43
2017-12-20T18:28:01.161Z,32.63
2017-12-20T18:30:28.598Z,34.70
2017-12-20T18:32:56.045Z,36.10
2017-12-20T18:35:23.454Z,35.03
2017-12-20T18:37:50.906Z,32.40
2017-12-20T18:40:18.350Z,32.67
2017-12-20T18:42:45.814Z,33.70
2017-12-20T18:45:13.230Z,27.77
2017-12-20T18:47:40.662Z,32.73
2017-12-20T18:50:08.113Z,32.43
2017-12-20T18:52:35.529Z,36.03
2017-12-20T18:55:02.973Z,34.10
2017-12-20T18:57:30.409Z,34.27
2017-12-20T18:59:57.824Z,35.07
2017-12-20T19:02:25.505Z,32.93
2017-12-20T19:04:52.946Z,35.70
2017-12-20T19:07:20.365Z,31.23
2017-12-20T19:09:51.966Z,31.00
2017-12-20T19:12:19.406Z,35.80
2017-12-20T19:14:48.066Z,32.20
2017-12-20T19:17:15.489Z,35.57
2017-12-20T19:19:42.889Z,30.43
2017-12-20T19:22:10.305Z,31.50
2017-12-20T19:24:38.621Z,30.50
2017-12-20T19:27:06.066Z,30.13
2017-12-20T19:29:33.493Z,28.27
2017-12-20T19:32:00.899Z,27.97
2017-12-20T19:34:28.309Z,28.47
2017-12-20T19:36:55.725Z,30.87
2017-12-20T19:39:23.239Z,31.77
2017-12-20T19:41:50.653Z,30.87
2017-12-20T19:44:18.061Z,33.57
2017-12-20T19:46:45.478Z,33.50
2017-12-20T19:49:13.558Z,32.70
2017-12-20T19:51:41.034Z,30.30
2017-12-20T19:54:08.440Z,29.23
2017-12-20T19:56:35.933Z,28.83
2017-12-20T19:59:03.342Z,31.67
2017-12-20T20:01:30.804Z,34.33
2017-12-20T20:03:58.293Z,35.27
2017-12-20T20:06:25.764Z,35.17
2017-12-20T20:08:53.191Z,37.47
2017-12-20T20:11:21.246Z,36.70
2017-12-20T20:13:48.651Z,36.93
2017-12-20T20:16:16.089Z,34.67
2017-12-20T20:18:43.562Z,37.20
2017-12-20T20:21:10.977Z,37.27
2017-12-20T20:23:39.604Z,32.40
2017-12-20T20:26:07.007Z,34.17
2017-12-20T20:28:34.469Z,30.87
2017-12-20T20:31:02.841Z,32.50
2017-12-20T20:33:30.258Z,33.53
2017-12-20T20:35:57.681Z,37.30
2017-12-20T20:38:25.109Z,33.73
2017-12-20T20:40:53.768Z,34.73
2017-12-20T20:43:21.274Z,32.63
2017-12-20T20:45:48.705Z,31.50
2017-12-20T20:48:16.126Z,29.93
2017-12-20T20:50:43.549Z,31.87
2017-12-20T20:53:10.984Z,34.33
2017-12-20T20:55:38.412Z,32.10
2017-12-20T20:58:05.845Z,30.77
2017-12-20T21:00:33.264Z,30.87
2017-12-20T21:03:00.681Z,29.53
2017-12-20T21:05:28.125Z,27.90
2017-12-20T21:07:55.538Z,29.23
2017-12-20T21:10:22.940Z,27.90
2017-12-20T21:12:50.370Z,27.93
2017-12-20T21:15:17.773Z,31.30
2017-12-20T21:17:45.204Z,30.33
2017-12-20T21:20:12.617Z,31.33
2017-12-20T21:22:40.042Z,29.23
2017-12-20T21:25:07.453Z,27.60
2017-12-20T21:27:34.896Z,36.73
2017-12-20T21:30:02.305Z,34.60
2017-12-20T21:32:29.724Z,29.47
2017-12-20T21:34:57.164Z,29.40
2017-12-20T21:37:24.581Z,33.23
2017-12-20T21:39:52.098Z,29.67
2017-12-20T21:42:19.517Z,30.60
2017-12-20T21:44:47.769Z,33.63
2017-12-20T21:47:15.219Z,29.00
2017-12-20T21:49:42.642Z,31.43
2017-12-20T21:52:10.125Z,29.20
2017-12-20T21:54:37.530Z,28.47
2017-12-20T21:57:04.941Z,28.97
2017-12-20T21:59:32.357Z,28.80
2017-12-20T22:01:59.762Z,26.80
2017-12-20T22:04:27.177Z,31.20
2017-12-20T22:06:54.597Z,28.20
2017-12-20T22:09:22.010Z,29.43
2017-12-20T22:11:49.417Z,26.70
2017-12-20T22:14:16.825Z,27.80
2017-12-20T22:16:44.247Z,29.33
2017-12-20T22:19:11.701Z,31.23
2017-12-20T22:21:39.113Z,30.53
2017-12-20T22:24:06.517Z,31.67
2017-12-20T22:26:33.939Z,32.37
2017-12-20T22:29:01.382Z,29.47
2017-12-20T22:31:28.808Z,30.27
2017-12-20T22:33:56.208Z,28.97
2017-12-20T22:36:23.629Z,28.43
2017-12-20T22:38:51.037Z,28.20
2017-12-20T22:41:18.453Z,28.20
2017-12-20T22:43:45.862Z,28.00
2017-12-20T22:46:13.273Z,28.40
2017-12-20T22:48:40.690Z,30.60
2017-12-20T22:51:08.097Z,30.70
2017-12-20T22:53:35.532Z,28.93
2017-12-20T22:56:02.941Z,28.13
2017-12-20T22:58:30.345Z,31.07
2017-12-20T23:00:57.768Z,28.63
2017-12-20T23:03:25.177Z,28.63
2017-12-20T23:05:52.697Z,27.20
2017-12-20T23:08:20.114Z,28.93
2017-12-20T23:10:47.525Z,28.37
2017-12-20T23:13:14.945Z,28.97
2017-12-20T23:15:42.361Z,28.80
2017-12-20T23:18:09.815Z,29.43
2017-12-20T23:20:37.256Z,26.70
2017-12-20T23:23:04.665Z,29.20
2017-12-20T23:25:32.097Z,29.50
2017-12-20T23:27:59.510Z,27.77
2017-12-20T23:30:27.037Z,29.67
2017-12-20T23:32:54.507Z,26.97
2017-12-20T23:35:21.946Z,28.13
2017-12-20T23:37:49.362Z,26.90
2017-12-20T23:40:16.763Z,27.30
2017-12-20T23:42:44.184Z,26.67
2017-12-20T23:45:11.597Z,25.90
2017-12-20T23:47:39.010Z,28.03
2017-12-20T23:50:06.421Z,26.53
2017-12-20T23:52:33.828Z,25.00
2017-12-20T23:55:01.254Z,27.33
2017-12-20T23:57:28.669Z,27.57
2017-12-20T23:59:56.086Z,26.70
